TimePST,TemperatureF,Dew PointF,Humidity,Sea Level PressureIn,VisibilityMPH,Wind Direction,Wind SpeedMPH,Gust SpeedMPH,PrecipitationIn,Events,Conditions,WindDirDegrees,DateUTC
12:51 AM,62.1,21.9,21,30.15,10.0,East,9.2,-,N/A,,Clear,90,2013-02-16 08:51:00
1:51 AM,60.1,23.0,24,30.14,10.0,East,3.5,-,N/A,,Clear,80,2013-02-16 09:51:00
2:51 AM,57.9,24.1,27,30.12,10.0,ENE,4.6,-,N/A,,Clear,60,2013-02-16 10:51:00
3:51 AM,50.0,30.9,48,30.12,10.0,NW,4.6,-,N/A,,Clear,310,2013-02-16 11:51:00
4:51 AM,55.0,25.0,31,30.12,10.0,ENE,5.8,-,N/A,,Clear,70,2013-02-16 12:51:00
5:51 AM,57.0,24.1,28,30.12,10.0,East,6.9,-,N/A,,Clear,90,2013-02-16 13:51:00
6:51 AM,57.0,23.0,27,30.13,10.0,ENE,4.6,-,N/A,,Clear,70,2013-02-16 14:51:00
7:51 AM,64.0,24.1,22,30.14,10.0,ENE,8.1,-,N/A,,Clear,70,2013-02-16 15:51:00
8:51 AM,70.0,26.1,19,30.14,10.0,East,8.1,-,N/A,,Clear,80,2013-02-16 16:51:00
9:51 AM,73.9,24.1,16,30.14,10.0,East,9.2,-,N/A,,Clear,80,2013-02-16 17:51:00
10:51 AM,71.1,36.0,28,30.14,10.0,WSW,5.8,-,N/A,,Clear,250,2013-02-16 18:51:00
11:51 AM,70.0,35.1,28,30.11,10.0,West,10.4,-,N/A,,Clear,270,2013-02-16 19:51:00
12:51 PM,72.0,28.0,20,30.07,10.0,West,9.2,-,N/A,,Clear,280,2013-02-16 20:51:00
1:51 PM,73.0,26.1,17,30.05,10.0,WNW,9.2,-,N/A,,Clear,290,2013-02-16 21:51:00
2:51 PM,73.0,25.0,17,30.04,10.0,WNW,8.1,-,N/A,,Clear,290,2013-02-16 22:51:00
3:51 PM,73.0,19.9,14,30.02,10.0,West,6.9,-,N/A,,Clear,270,2013-02-16 23:51:00
4:51 PM,70.0,26.1,19,30.01,10.0,West,8.1,-,N/A,,Clear,280,2013-02-17 00:51:00
5:51 PM,60.1,44.1,55,30.01,10.0,WNW,6.9,-,N/A,,Clear,300,2013-02-17 01:51:00
6:51 PM,57.9,45.0,62,30.00,10.0,West,4.6,-,N/A,,Clear,270,2013-02-17 02:51:00
7:51 PM,55.0,44.1,67,30.00,10.0,WNW,4.6,-,N/A,,Clear,300,2013-02-17 03:51:00
8:51 PM,55.0,45.0,69,30.00,10.0,Calm,Calm,-,N/A,,Clear,0,2013-02-17 04:51:00
9:51 PM,50.0,37.9,63,30.01,10.0,Calm,Calm,-,N/A,,Clear,0,2013-02-17 05:51:00
10:51 PM,50.0,37.9,63,29.99,10.0,Calm,Calm,-,N/A,,Clear,0,2013-02-17 06:51:00
11:51 PM,48.0,32.0,54,29.98,10.0,ENE,3.5,-,N/A,,Clear,70,2013-02-17 07:51:00